"WATCHING THE WEATHER TO PROTECT LIFE AND PROPERTY"


AKTUALMENTE NO TIN NINGUN VIGILANSIA ÒF ATVERTENSIA


Satelit (InfraRojo)


KFLL 240153Z 23008KT 10SM CLR 22/16 A2990 RMK AO2 SLP123 T02170161 $
KMCO 240253Z 23009KT 10SM SCT095 19/18 A2982 RMK AO2 RAE02 SLP098 P0002 60011 T01890178 51018
KMIA 240253Z 23006KT 10SM CLR 21/16 A2992 RMK AO2 SLP131 T02060156 51009
KTPA 240253Z 25006KT 9SM SCT011 BKN023 BKN037 19/18 A2985 RMK AO2 SLP109 T01940183 51010
MDPP 240200Z 00000KT 9999 FEW018 21/21 Q1015
MDSD 240200Z 06005KT 9999 FEW018 23/19 Q1016
MKJS 240200Z 15005KT 9999 FEW022 24/19 Q1014
MTPP 240200Z VRB02KT 8000 FEW022 25/20 Q1015 A2998
MUHA 240150Z 18003KT 9000 FEW030 16/14 Q1015
MYNN 240200Z 24008KT 9999 FEW025 21/15 A2996
TAPA 240200Z 07008KT 040V110 9999 SCT023 25/21 Q1017 NOSIG
TFFF 240230Z AUTO VRB03KT 9999 -RA FEW032/// BKN056/// OVC070/// ///TCU 25/22 Q1016 TEMPO 2500 SHRA SCT018CB
TFFR 240230Z AUTO 09001KT 9999 FEW020 23/23 Q1016 TEMPO 2500 SHRA SCT015CB
TIST 240253Z AUTO 08003KT 10SM 23/18 A3004 RMK AO2 SLP172 6//// T02330178 51012 PNO $
TISX 240253Z AUTO 04005KT 10SM CLR 23/19 A3004 RMK AO2 SLP170 T02330194 50009
TJSJ 240156Z 13004KT 10SM FEW022 24/16 A3004 RMK AO2 SLP171 T02390156 $
TKPK 240100Z 03010KT 9999 FEW018 25/20 Q1016
TNCA 240200Z 09015KT 9999 FEW019 27/22 Q1013 NOSIG
TNCB 240155Z AUTO 08009KT 9999 FEW016/// 26/23 Q1013
TNCC 240200Z 10011KT 9999 FEW018 27/23 Q1013 NOSIG
TNCE 240155Z AUTO 08014KT //// // ///////// 25/21 Q1016 RE//
TNCM 240200Z 06007KT 9999 FEW020 25/21 Q1018
TQPF 232300Z 06005KT 9999 FEW019 24/20 Q1015
TUPJ 240200Z 09005KT 10SM FEW028 24/17 A3004 RMK Q1017 VIS16KM